Time;durP1;ratioP1;P1;durP2;ratioP2;P2;SDS_P1;SDS_P2;PMS_P1;PMS_P2;Temp;Humidity;BMP_temperature;BMP_pressure;BME280_temperature;BME280_humidity;BME280_pressure;Samples;Min_cycle;Max_cycle;Signal;HPM_P1;HPM_P2
2021/08/08 00:01:53;;;;;;;4.80;1.47;;;14.70;99.90;;;;;;492330;241;29191;-71
2021/08/08 00:03:55;;;;;;;1.47;1.40;;;14.70;99.90;;;;;;492334;241;28900;-71
2021/08/08 00:05:56;;;;;;;1.70;1.60;;;14.70;99.90;;;;;;492282;241;28947;-71
2021/08/08 00:07:57;;;;;;;1.73;1.30;;;14.70;99.90;;;;;;492272;241;28821;-70
2021/08/08 00:09:58;;;;;;;2.87;1.87;;;14.60;99.90;;;;;;492335;241;28775;-70
2021/08/08 00:12:00;;;;;;;8.37;2.37;;;14.60;99.90;;;;;;492333;241;28825;-71
2021/08/08 00:14:01;;;;;;;2.70;1.60;;;14.50;99.90;;;;;;492292;237;28549;-71
2021/08/08 00:16:02;;;;;;;2.67;1.67;;;14.60;99.90;;;;;;492342;241;28410;-71
2021/08/08 00:18:05;;;;;;;1.60;1.50;;;14.60;99.90;;;;;;492298;241;28733;-71
2021/08/08 00:20:05;;;;;;;1.87;1.77;;;14.60;99.90;;;;;;492287;241;28537;-71
2021/08/08 00:22:06;;;;;;;1.70;1.60;;;14.60;99.90;;;;;;492351;240;28832;-71
2021/08/08 00:24:07;;;;;;;2.50;1.93;;;14.60;99.90;;;;;;492328;241;28856;-70
2021/08/08 00:26:08;;;;;;;2.60;1.60;;;14.60;99.90;;;;;;492306;240;29390;-71
2021/08/08 00:28:10;;;;;;;1.90;1.70;;;14.50;99.90;;;;;;492324;241;29300;-70
2021/08/08 00:30:11;;;;;;;1.87;1.60;;;14.50;99.90;;;;;;492324;241;29292;-69
2021/08/08 00:32:12;;;;;;;1.43;1.43;;;14.50;99.90;;;;;;492318;241;29390;-71
2021/08/08 00:34:13;;;;;;;3.53;1.90;;;14.50;99.90;;;;;;492331;241;28830;-70
2021/08/08 00:36:15;;;;;;;1.57;1.47;;;14.50;99.90;;;;;;492300;241;28714;-71
2021/08/08 00:38:16;;;;;;;1.47;1.40;;;14.50;99.90;;;;;;492331;241;28487;-70
2021/08/08 00:40:17;;;;;;;1.40;1.30;;;14.50;99.90;;;;;;492335;240;28448;-70
2021/08/08 00:42:19;;;;;;;3.20;1.87;;;14.50;99.90;;;;;;492327;241;28531;-71
2021/08/08 00:44:20;;;;;;;2.00;1.40;;;14.40;99.90;;;;;;492320;241;28489;-70
2021/08/08 00:46:21;;;;;;;1.60;1.50;;;14.40;99.90;;;;;;492296;240;28352;-71
2021/08/08 00:48:22;;;;;;;3.03;1.67;;;14.40;99.90;;;;;;492332;241;28824;-72
2021/08/08 00:50:24;;;;;;;1.83;1.63;;;14.40;99.90;;;;;;492340;241;28710;-70
2021/08/08 00:52:25;;;;;;;1.80;1.70;;;14.40;99.90;;;;;;492336;241;29379;-73
2021/08/08 00:54:26;;;;;;;1.43;1.33;;;14.40;99.90;;;;;;492332;241;30007;-70
2021/08/08 00:56:28;;;;;;;2.20;1.50;;;14.40;99.90;;;;;;492326;241;29276;-70
2021/08/08 00:58:29;;;;;;;2.60;1.33;;;14.30;99.90;;;;;;492305;241;28821;-70
2021/08/08 01:00:30;;;;;;;2.03;1.67;;;14.30;99.90;;;;;;492346;241;28575;-71
2021/08/08 01:02:31;;;;;;;1.77;1.67;;;14.40;99.90;;;;;;492344;241;28407;-71
2021/08/08 01:04:32;;;;;;;1.93;1.50;;;14.30;99.90;;;;;;492332;241;28956;-70
2021/08/08 01:06:34;;;;;;;1.50;1.40;;;14.20;99.90;;;;;;492355;241;28767;-70
2021/08/08 01:08:35;;;;;;;1.43;1.40;;;14.20;99.90;;;;;;492334;241;28572;-71
2021/08/08 01:10:36;;;;;;;1.60;1.50;;;14.20;99.90;;;;;;492323;241;28237;-71
2021/08/08 01:12:38;;;;;;;1.67;1.57;;;14.10;99.90;;;;;;492331;241;28393;-71
2021/08/08 01:14:39;;;;;;;3.03;2.07;;;14.10;99.90;;;;;;492307;241;28698;-71
2021/08/08 01:16:40;;;;;;;1.83;1.60;;;14.10;99.90;;;;;;492318;241;28838;-70
2021/08/08 01:18:41;;;;;;;2.23;2.03;;;14.10;99.90;;;;;;492327;241;29370;-72
2021/08/08 01:20:42;;;;;;;2.23;1.63;;;14.00;99.90;;;;;;492278;241;28685;-70
2021/08/08 01:22:44;;;;;;;1.60;1.50;;;14.00;99.90;;;;;;492301;241;28353;-71
2021/08/08 01:24:45;;;;;;;1.80;1.70;;;14.00;99.90;;;;;;492310;237;28203;-70
2021/08/08 01:26:46;;;;;;;1.90;1.80;;;14.00;99.90;;;;;;492347;241;28210;-70
2021/08/08 01:28:49;;;;;;;1.70;1.60;;;13.90;99.90;;;;;;492326;241;28263;-70
2021/08/08 01:30:49;;;;;;;1.70;1.60;;;13.90;99.90;;;;;;492276;241;28253;-71
2021/08/08 01:32:50;;;;;;;3.23;1.50;;;13.90;99.90;;;;;;492313;241;28394;-70
2021/08/08 01:34:51;;;;;;;2.60;1.20;;;13.90;99.90;;;;;;492300;241;28414;-70
2021/08/08 01:36:52;;;;;;;1.70;1.60;;;13.90;99.90;;;;;;492314;241;28268;-70
2021/08/08 01:38:54;;;;;;;2.70;1.50;;;13.80;99.90;;;;;;492332;241;28697;-71
2021/08/08 01:40:55;;;;;;;1.83;1.50;;;13.80;99.90;;;;;;492328;241;28981;-70
2021/08/08 01:42:56;;;;;;;1.53;1.30;;;13.80;99.90;;;;;;492308;241;28887;-71
2021/08/08 01:44:57;;;;;;;2.50;1.50;;;13.80;99.90;;;;;;492348;241;28904;-71
2021/08/08 01:46:59;;;;;;;9.83;2.03;;;13.80;99.90;;;;;;492326;241;28561;-70
2021/08/08 01:49:00;;;;;;;2.03;1.53;;;13.80;99.90;;;;;;492299;241;28292;-70
2021/08/08 01:51:01;;;;;;;2.30;1.40;;;13.80;99.90;;;;;;492320;241;28249;-70
2021/08/08 01:53:02;;;;;;;1.20;1.20;;;13.80;99.90;;;;;;492327;241;28091;-70
2021/08/08 01:55:05;;;;;;;4.30;1.40;;;;;;;;;;492327;241;28620;-71
2021/08/08 01:57:06;;;;;;;2.57;1.53;;;13.70;99.90;;;;;;492327;241;26976;-70
2021/08/08 01:59:07;;;;;;;2.30;1.47;;;13.70;99.90;;;;;;492332;241;28336;-71
2021/08/08 02:01:09;;;;;;;1.50;1.40;;;13.70;99.90;;;;;;492325;241;28199;-70
2021/08/08 02:03:10;;;;;;;1.40;1.30;;;13.70;99.90;;;;;;492243;241;28417;-71
2021/08/08 02:05:11;;;;;;;1.50;1.40;;;13.70;99.90;;;;;;492312;241;28063;-70
2021/08/08 02:07:12;;;;;;;3.00;1.50;;;13.70;99.90;;;;;;492327;241;28206;-70
2021/08/08 02:09:14;;;;;;;2.03;1.50;;;13.70;99.90;;;;;;492317;241;28274;-70
2021/08/08 02:11:15;;;;;;;1.90;1.53;;;13.70;99.90;;;;;;492304;241;28214;-70
2021/08/08 02:13:16;;;;;;;2.03;1.43;;;13.70;99.90;;;;;;492304;241;28099;-70
2021/08/08 02:15:17;;;;;;;1.20;1.20;;;13.80;99.90;;;;;;492324;240;28150;-71
2021/08/08 02:17:20;;;;;;;2.90;1.30;;;13.80;99.90;;;;;;492313;241;28574;-70
2021/08/08 02:19:21;;;;;;;1.93;1.27;;;;;;;;;;492247;241;28772;-70
2021/08/08 02:21:22;;;;;;;2.40;1.53;;;13.80;99.90;;;;;;492328;241;26405;-70
2021/08/08 02:23:25;;;;;;;1.73;1.40;;;;;;;;;;492289;241;28292;-70
2021/08/08 02:25:26;;;;;;;2.50;1.53;;;13.80;99.90;;;;;;492287;241;26923;-70
2021/08/08 02:27:27;;;;;;;1.43;1.33;;;13.80;99.90;;;;;;492317;241;28095;-70
2021/08/08 02:29:29;;;;;;;3.47;1.30;;;13.80;99.90;;;;;;492304;241;28397;-70
2021/08/08 02:31:30;;;;;;;3.27;1.60;;;13.70;99.90;;;;;;492324;241;28389;-70
2021/08/08 02:33:31;;;;;;;1.37;1.27;;;13.70;99.90;;;;;;492329;241;28198;-70
2021/08/08 02:35:32;;;;;;;1.47;1.37;;;13.70;99.90;;;;;;492317;241;28160;-70
2021/08/08 02:37:33;;;;;;;1.40;1.30;;;13.80;99.90;;;;;;492321;241;28214;-70
2021/08/08 02:39:35;;;;;;;1.10;1.10;;;13.80;99.90;;;;;;492326;241;28198;-70
2021/08/08 02:41:36;;;;;;;1.27;1.17;;;13.80;99.90;;;;;;492324;241;28868;-70
2021/08/08 02:43:37;;;;;;;1.27;1.27;;;13.70;99.90;;;;;;492331;241;28632;-70
2021/08/08 02:45:38;;;;;;;1.23;1.10;;;13.70;99.90;;;;;;492345;240;28813;-70
2021/08/08 02:47:40;;;;;;;3.07;1.40;;;13.60;99.90;;;;;;492317;241;28130;-70
2021/08/08 02:49:41;;;;;;;1.57;1.47;;;13.70;99.90;;;;;;492248;241;28206;-70
2021/08/08 02:51:42;;;;;;;1.60;1.50;;;13.60;99.90;;;;;;492343;241;28272;-70
2021/08/08 02:53:43;;;;;;;1.50;1.40;;;13.70;99.90;;;;;;492306;241;28375;-70
2021/08/08 02:55:45;;;;;;;1.53;1.33;;;13.70;99.90;;;;;;492344;241;28098;-70
2021/08/08 02:57:46;;;;;;;1.43;1.20;;;13.70;99.90;;;;;;492313;241;28233;-70
2021/08/08 02:59:47;;;;;;;1.57;1.30;;;13.70;99.90;;;;;;492324;241;28221;-70
2021/08/08 03:01:48;;;;;;;6.93;1.40;;;13.70;99.90;;;;;;492339;241;28151;-70
2021/08/08 03:03:50;;;;;;;2.20;1.33;;;13.70;99.90;;;;;;492315;241;28200;-72
2021/08/08 03:05:51;;;;;;;4.40;1.40;;;13.70;99.90;;;;;;492299;241;28756;-70
2021/08/08 03:07:52;;;;;;;2.33;1.70;;;13.70;99.90;;;;;;492319;241;28644;-70
2021/08/08 03:09:53;;;;;;;2.90;1.70;;;13.70;99.90;;;;;;492311;241;28823;-70
2021/08/08 03:11:55;;;;;;;4.00;1.40;;;13.70;99.90;;;;;;492329;241;28281;-70
2021/08/08 03:13:56;;;;;;;2.13;1.40;;;13.70;99.90;;;;;;492294;241;28102;-70
2021/08/08 03:15:57;;;;;;;3.03;1.40;;;13.70;99.90;;;;;;492297;241;28510;-70
2021/08/08 03:17:58;;;;;;;1.40;1.30;;;13.70;99.90;;;;;;492284;241;28270;-69
2021/08/08 03:20:00;;;;;;;2.73;1.50;;;13.70;99.90;;;;;;492314;241;28196;-70
2021/08/08 03:22:01;;;;;;;4.83;1.50;;;13.60;99.90;;;;;;492277;241;28056;-70
2021/08/08 03:24:02;;;;;;;1.60;1.50;;;13.60;99.90;;;;;;492266;241;28290;-70
2021/08/08 03:26:05;;;;;;;3.03;1.57;;;;;;;;;;492325;241;28367;-70
2021/08/08 03:28:06;;;;;;;1.83;1.50;;;13.50;99.90;;;;;;492341;240;26623;-70
2021/08/08 03:30:07;;;;;;;1.50;1.40;;;13.50;99.90;;;;;;492333;241;28159;-70
2021/08/08 03:32:08;;;;;;;1.80;1.40;;;13.50;99.90;;;;;;492299;241;28171;-70
2021/08/08 03:34:10;;;;;;;1.50;1.40;;;13.40;99.90;;;;;;492341;241;28331;-70
2021/08/08 03:36:14;;;;;;;2.23;1.57;;;13.40;99.90;;;;;;492355;241;28259;-70
2021/08/08 03:38:15;;;;;;;1.70;1.60;;;13.40;99.90;;;;;;492307;241;28208;-71
2021/08/08 03:40:16;;;;;;;3.73;1.50;;;13.40;99.90;;;;;;492337;241;28179;-70
2021/08/08 03:42:17;;;;;;;1.83;1.60;;;13.40;99.90;;;;;;492327;241;28709;-70
2021/08/08 03:44:19;;;;;;;1.57;1.40;;;13.40;99.90;;;;;;491991;241;29064;-70
2021/08/08 03:46:20;;;;;;;2.80;1.70;;;13.40;99.90;;;;;;492182;241;28885;-70
2021/08/08 03:48:21;;;;;;;2.63;2.10;;;13.40;99.90;;;;;;492342;241;28136;-70
2021/08/08 03:50:23;;;;;;;1.80;1.70;;;13.30;99.90;;;;;;492330;241;28163;-70
2021/08/08 03:52:24;;;;;;;1.93;1.53;;;13.30;99.90;;;;;;492328;241;28189;-70
2021/08/08 03:54:26;;;;;;;1.60;1.50;;;13.30;99.90;;;;;;492331;241;28574;-70
2021/08/08 03:56:26;;;;;;;3.10;1.87;;;13.30;99.90;;;;;;492273;241;28207;-70
2021/08/08 03:58:30;;;;;;;2.00;1.63;;;13.30;99.90;;;;;;492356;241;28838;-70
2021/08/08 04:00:29;;;;;;;2.43;1.90;;;13.30;99.90;;;;;;492210;241;28099;-70
2021/08/08 04:02:30;;;;;;;2.00;1.70;;;13.40;99.90;;;;;;492309;241;28071;-70
2021/08/08 04:04:31;;;;;;;1.60;1.50;;;13.50;99.90;;;;;;492316;241;28587;-70
2021/08/08 04:06:33;;;;;;;1.70;1.60;;;13.50;99.90;;;;;;492315;241;28731;-70
2021/08/08 04:08:34;;;;;;;1.70;1.60;;;13.60;99.90;;;;;;492345;241;28723;-71
2021/08/08 04:10:35;;;;;;;3.20;2.27;;;13.60;99.90;;;;;;492331;241;28789;-71
2021/08/08 04:12:36;;;;;;;2.00;1.73;;;13.70;99.90;;;;;;492321;241;28306;-71
2021/08/08 04:14:38;;;;;;;2.40;1.63;;;13.70;99.90;;;;;;492341;241;28240;-71
2021/08/08 04:16:40;;;;;;;2.80;1.77;;;;;;;;;;492335;241;28268;-71
2021/08/08 04:18:41;;;;;;;3.63;1.60;;;13.70;99.90;;;;;;492330;241;27036;-71
2021/08/08 04:20:42;;;;;;;3.17;2.10;;;13.80;99.90;;;;;;492320;241;29041;-70
2021/08/08 04:22:44;;;;;;;1.93;1.80;;;13.80;99.90;;;;;;492336;241;28738;-71
2021/08/08 04:24:45;;;;;;;1.87;1.63;;;13.80;99.90;;;;;;492325;241;28521;-71
2021/08/08 04:26:46;;;;;;;2.17;1.73;;;13.90;99.90;;;;;;492346;241;28168;-71
2021/08/08 04:28:47;;;;;;;2.93;1.80;;;13.90;99.90;;;;;;492322;241;28191;-71
2021/08/08 04:30:49;;;;;;;1.87;1.77;;;13.80;99.90;;;;;;492320;241;28269;-71
2021/08/08 04:32:50;;;;;;;2.50;2.20;;;13.90;99.90;;;;;;492340;241;28595;-71
2021/08/08 04:34:51;;;;;;;3.50;2.03;;;13.90;99.90;;;;;;492277;241;28651;-71
2021/08/08 04:36:52;;;;;;;4.07;2.00;;;13.90;99.90;;;;;;492329;241;28383;-71
2021/08/08 04:38:54;;;;;;;5.37;2.20;;;13.90;99.90;;;;;;492352;240;28208;-70
2021/08/08 04:40:55;;;;;;;4.30;2.50;;;13.90;99.90;;;;;;492335;241;28541;-71
2021/08/08 04:42:56;;;;;;;6.30;2.60;;;13.90;99.90;;;;;;492340;241;28683;-70
2021/08/08 04:44:57;;;;;;;3.10;2.80;;;14.00;99.90;;;;;;492332;241;29291;-70
2021/08/08 04:46:59;;;;;;;2.37;2.17;;;14.00;99.90;;;;;;492359;241;28701;-72
2021/08/08 04:49:00;;;;;;;2.67;2.47;;;14.00;99.90;;;;;;492333;241;28607;-70
2021/08/08 04:51:01;;;;;;;5.97;2.40;;;14.00;99.90;;;;;;492322;241;28307;-72
2021/08/08 04:53:02;;;;;;;3.57;2.47;;;14.00;99.90;;;;;;492251;241;28385;-72
2021/08/08 04:55:04;;;;;;;2.57;2.37;;;14.00;99.90;;;;;;492228;241;28507;-70
2021/08/08 04:57:05;;;;;;;4.17;2.80;;;14.00;99.90;;;;;;492219;240;28272;-73
2021/08/08 04:59:06;;;;;;;2.37;2.17;;;14.00;99.90;;;;;;492211;238;28210;-71
2021/08/08 05:01:07;;;;;;;9.83;2.43;;;14.00;99.90;;;;;;492301;241;28669;-70
2021/08/08 05:03:09;;;;;;;2.40;2.20;;;14.10;99.90;;;;;;492270;241;28300;-71
2021/08/08 05:05:10;;;;;;;2.30;2.20;;;14.10;99.90;;;;;;492276;241;28414;-71
2021/08/08 05:07:11;;;;;;;4.20;2.40;;;14.10;99.90;;;;;;492268;241;29244;-71
2021/08/08 05:09:13;;;;;;;5.30;2.10;;;14.10;99.90;;;;;;492270;241;28842;-71
2021/08/08 05:11:14;;;;;;;2.83;2.43;;;14.10;99.90;;;;;;492302;241;29320;-71
2021/08/08 05:13:15;;;;;;;2.77;2.00;;;14.10;99.90;;;;;;492327;241;28578;-71
2021/08/08 05:15:16;;;;;;;4.60;2.30;;;14.10;99.90;;;;;;492325;241;28471;-71
2021/08/08 05:17:18;;;;;;;2.60;2.23;;;14.10;99.90;;;;;;492316;241;28375;-70
2021/08/08 05:19:19;;;;;;;2.90;2.53;;;14.20;99.90;;;;;;492201;241;28285;-71
2021/08/08 05:21:20;;;;;;;4.93;2.70;;;14.20;99.90;;;;;;492323;241;28430;-72
2021/08/08 05:23:21;;;;;;;6.33;2.30;;;14.20;99.90;;;;;;492321;241;28271;-71
2021/08/08 05:25:23;;;;;;;2.43;2.10;;;14.20;99.90;;;;;;492317;241;28488;-70
2021/08/08 05:27:24;;;;;;;4.80;2.73;;;14.20;99.90;;;;;;492329;241;28274;-72
2021/08/08 05:29:25;;;;;;;5.67;2.80;;;14.20;99.90;;;;;;492308;241;29728;-70
2021/08/08 05:31:26;;;;;;;4.30;2.93;;;14.20;99.90;;;;;;492320;241;28753;-71
2021/08/08 05:33:28;;;;;;;3.57;2.67;;;14.30;99.90;;;;;;492310;241;29361;-71
2021/08/08 05:35:29;;;;;;;3.00;2.67;;;14.30;99.90;;;;;;492301;241;28447;-70
2021/08/08 05:37:30;;;;;;;5.53;2.70;;;14.30;99.90;;;;;;492319;241;28487;-72
2021/08/08 05:39:31;;;;;;;6.20;3.33;;;14.30;99.90;;;;;;492309;241;28612;-72
2021/08/08 05:41:33;;;;;;;4.03;2.87;;;14.30;99.90;;;;;;492305;241;28715;-72
2021/08/08 05:43:34;;;;;;;5.10;2.47;;;14.40;99.90;;;;;;492320;241;28679;-72
2021/08/08 05:45:35;;;;;;;7.00;3.10;;;14.40;99.90;;;;;;492322;241;28799;-69
2021/08/08 05:47:36;;;;;;;4.73;3.00;;;14.50;99.90;;;;;;492320;240;28808;-69
2021/08/08 05:49:38;;;;;;;5.00;2.53;;;14.40;99.90;;;;;;492306;241;28919;-70
2021/08/08 05:51:42;;;;;;;2.90;2.47;;;14.50;99.90;;;;;;492308;241;28811;-72
2021/08/08 05:53:43;;;;;;;4.60;2.27;;;14.60;99.90;;;;;;492209;241;28535;-72
2021/08/08 05:55:46;;;;;;;2.93;2.53;;;14.50;99.90;;;;;;492324;241;29329;-72
2021/08/08 05:57:45;;;;;;;3.73;2.30;;;14.50;99.90;;;;;;492200;241;29395;-71
2021/08/08 05:59:47;;;;;;;4.50;2.33;;;14.50;99.90;;;;;;492312;241;29367;-71
2021/08/08 06:01:48;;;;;;;4.13;2.30;;;14.50;99.90;;;;;;492283;241;29319;-71
2021/08/08 06:03:49;;;;;;;3.50;2.77;;;14.50;99.90;;;;;;491933;241;28803;-72
2021/08/08 06:05:50;;;;;;;3.10;2.27;;;14.60;99.90;;;;;;492297;241;28479;-72
2021/08/08 06:07:52;;;;;;;2.27;2.00;;;14.60;99.90;;;;;;492307;241;28810;-72
2021/08/08 06:09:53;;;;;;;2.80;2.10;;;14.60;99.90;;;;;;492321;241;28686;-71
2021/08/08 06:11:54;;;;;;;2.50;2.30;;;14.80;99.90;;;;;;492311;241;28674;-72
2021/08/08 06:13:55;;;;;;;2.40;2.20;;;14.90;99.90;;;;;;492325;241;28907;-72
2021/08/08 06:15:57;;;;;;;5.20;2.40;;;14.90;99.90;;;;;;492335;241;28843;-72
2021/08/08 06:17:58;;;;;;;3.80;2.30;;;14.80;99.90;;;;;;492342;237;28826;-72
2021/08/08 06:19:59;;;;;;;3.40;2.57;;;14.90;99.90;;;;;;492330;241;29683;-72
2021/08/08 06:22:00;;;;;;;3.80;2.30;;;14.90;99.90;;;;;;492327;241;29125;-72
2021/08/08 06:24:02;;;;;;;2.10;2.00;;;14.90;99.90;;;;;;492321;241;29367;-72
2021/08/08 06:26:03;;;;;;;2.03;1.90;;;14.80;99.90;;;;;;492343;241;29223;-72
2021/08/08 06:28:04;;;;;;;3.30;2.17;;;14.90;99.90;;;;;;492318;241;28827;-72
2021/08/08 06:30:05;;;;;;;5.83;2.20;;;14.80;99.90;;;;;;492318;241;28814;-69
2021/08/08 06:32:07;;;;;;;3.47;2.60;;;14.90;99.90;;;;;;492315;241;28853;-70
2021/08/08 06:34:08;;;;;;;2.73;2.27;;;14.90;99.90;;;;;;492274;241;28714;-72
2021/08/08 06:36:09;;;;;;;3.20;2.00;;;14.90;99.90;;;;;;492290;241;28674;-69
2021/08/08 06:38:10;;;;;;;3.43;2.27;;;15.00;99.90;;;;;;492274;241;28785;-70
2021/08/08 06:40:12;;;;;;;2.30;2.10;;;15.10;99.90;;;;;;492261;241;28698;-69
2021/08/08 06:42:13;;;;;;;2.70;2.07;;;15.10;99.90;;;;;;492308;241;28859;-71
2021/08/08 06:44:14;;;;;;;4.83;2.27;;;15.10;99.90;;;;;;492309;241;28825;-72
2021/08/08 06:46:15;;;;;;;2.90;2.43;;;15.20;99.90;;;;;;492280;241;29302;-72
2021/08/08 06:48:17;;;;;;;2.33;2.00;;;15.20;99.90;;;;;;492296;241;29390;-72
2021/08/08 06:50:18;;;;;;;3.10;2.40;;;15.20;99.90;;;;;;492320;241;29300;-72
2021/08/08 06:52:19;;;;;;;3.17;2.20;;;15.30;99.90;;;;;;492325;241;28683;-72
2021/08/08 06:54:20;;;;;;;2.83;2.23;;;15.30;99.90;;;;;;492309;241;28818;-71
2021/08/08 06:56:22;;;;;;;2.40;2.20;;;15.50;99.90;;;;;;492311;241;28873;-72
2021/08/08 06:58:23;;;;;;;2.90;2.03;;;15.50;99.90;;;;;;492297;241;28807;-72
2021/08/08 07:00:24;;;;;;;3.67;2.13;;;15.60;99.90;;;;;;492335;241;28826;-72
2021/08/08 07:02:25;;;;;;;3.17;2.37;;;15.70;99.90;;;;;;492332;241;28845;-72
2021/08/08 07:04:27;;;;;;;4.00;2.70;;;15.70;99.90;;;;;;492322;241;28919;-72
2021/08/08 07:06:28;;;;;;;2.43;2.23;;;15.60;99.90;;;;;;492336;241;28774;-72
2021/08/08 07:08:29;;;;;;;2.60;2.07;;;15.70;99.90;;;;;;492302;241;28801;-72
2021/08/08 07:10:30;;;;;;;10.10;2.23;;;15.70;99.90;;;;;;492322;241;29311;-70
2021/08/08 07:12:32;;;;;;;5.27;2.50;;;15.60;99.90;;;;;;492336;241;29231;-70
2021/08/08 07:14:35;;;;;;;3.63;2.27;;;15.60;99.90;;;;;;492342;241;29290;-72
2021/08/08 07:16:34;;;;;;;2.87;2.40;;;15.50;99.90;;;;;;492244;241;28776;-72
2021/08/08 07:18:35;;;;;;;2.67;2.40;;;15.60;99.90;;;;;;492299;241;28817;-72
2021/08/08 07:20:37;;;;;;;2.50;2.30;;;15.70;99.90;;;;;;492339;241;28830;-72
2021/08/08 07:22:38;;;;;;;2.47;2.10;;;15.90;99.90;;;;;;492346;241;28771;-72
2021/08/08 07:24:39;;;;;;;3.53;2.20;;;16.00;99.90;;;;;;492318;241;28896;-73
2021/08/08 07:26:40;;;;;;;2.70;2.50;;;16.20;99.90;;;;;;492378;241;28775;-72
2021/08/08 07:28:42;;;;;;;4.60;2.47;;;16.30;99.90;;;;;;492329;241;28880;-71
2021/08/08 07:30:43;;;;;;;3.23;2.40;;;16.40;99.90;;;;;;492342;241;28811;-70
2021/08/08 07:32:44;;;;;;;2.20;2.10;;;16.30;99.90;;;;;;492324;241;28834;-70
2021/08/08 07:34:45;;;;;;;7.20;2.90;;;16.20;99.90;;;;;;492307;241;29322;-72
2021/08/08 07:36:47;;;;;;;3.70;2.20;;;16.10;99.90;;;;;;492337;241;30024;-71
2021/08/08 07:38:48;;;;;;;5.73;2.20;;;16.10;99.90;;;;;;492335;241;29245;-71
2021/08/08 07:40:49;;;;;;;3.73;2.40;;;16.00;99.90;;;;;;492321;241;28889;-72
2021/08/08 07:42:50;;;;;;;3.70;2.47;;;16.20;99.90;;;;;;492343;241;28846;-71
2021/08/08 07:44:52;;;;;;;4.43;2.53;;;16.30;99.90;;;;;;492280;241;28886;-72
2021/08/08 07:46:53;;;;;;;6.27;2.60;;;16.20;99.90;;;;;;492315;241;28699;-69
2021/08/08 07:48:54;;;;;;;6.70;2.83;;;16.00;99.90;;;;;;492328;237;28798;-71
2021/08/08 07:50:55;;;;;;;2.83;1.90;;;15.80;99.90;;;;;;492345;241;28846;-70
2021/08/08 07:52:57;;;;;;;4.77;2.70;;;15.90;99.90;;;;;;492347;241;28768;-70
2021/08/08 07:54:58;;;;;;;3.70;2.30;;;16.10;99.90;;;;;;492346;241;28816;-70
2021/08/08 07:56:59;;;;;;;2.33;1.90;;;16.20;99.90;;;;;;492355;241;29526;-71
2021/08/08 07:59:00;;;;;;;5.00;2.40;;;16.20;99.90;;;;;;492344;241;29242;-72
2021/08/08 08:01:02;;;;;;;6.00;2.17;;;16.10;99.90;;;;;;492339;241;29312;-71
2021/08/08 08:03:03;;;;;;;4.13;2.20;;;16.10;99.90;;;;;;492354;241;28790;-72
2021/08/08 08:05:04;;;;;;;5.00;2.10;;;16.00;99.90;;;;;;492352;241;28808;-72
2021/08/08 08:07:05;;;;;;;3.27;1.90;;;16.00;99.90;;;;;;492342;241;28834;-72
2021/08/08 08:09:07;;;;;;;4.60;2.00;;;16.10;99.90;;;;;;492347;241;28785;-71
2021/08/08 08:11:08;;;;;;;3.70;2.17;;;16.30;99.90;;;;;;492338;241;28811;-71
2021/08/08 08:13:09;;;;;;;2.00;1.90;;;16.30;99.90;;;;;;492342;241;28760;-71
2021/08/08 08:15:10;;;;;;;2.17;1.90;;;16.30;99.90;;;;;;492300;241;28896;-71
2021/08/08 08:17:12;;;;;;;2.60;2.00;;;16.30;99.90;;;;;;492324;241;29160;-71
2021/08/08 08:19:13;;;;;;;2.87;2.50;;;16.20;99.90;;;;;;492296;241;28780;-71
2021/08/08 08:21:14;;;;;;;4.30;2.30;;;16.20;99.90;;;;;;492309;241;29283;-72
2021/08/08 08:23:15;;;;;;;3.80;1.90;;;16.30;99.90;;;;;;492311;241;29293;-71
2021/08/08 08:25:17;;;;;;;2.27;2.07;;;16.30;99.90;;;;;;492305;241;29406;-70
2021/08/08 08:27:18;;;;;;;3.97;2.40;;;16.20;99.90;;;;;;492321;241;29323;-72
2021/08/08 08:29:20;;;;;;;2.30;2.10;;;16.40;99.90;;;;;;492331;241;28674;-69
2021/08/08 08:31:20;;;;;;;10.20;2.17;;;16.70;99.90;;;;;;492283;241;28826;-72
2021/08/08 08:33:22;;;;;;;2.40;2.20;;;16.90;99.90;;;;;;492318;241;28760;-73
2021/08/08 08:35:23;;;;;;;3.27;2.23;;;16.90;99.90;;;;;;492305;241;28715;-73
2021/08/08 08:37:24;;;;;;;7.60;2.40;;;16.60;99.90;;;;;;492338;241;28803;-72
2021/08/08 08:39:25;;;;;;;2.40;2.20;;;16.50;99.90;;;;;;492287;241;28840;-72
2021/08/08 08:41:31;;;;;;;4.47;2.17;;;16.40;99.90;;;;;;492310;241;28910;-72
2021/08/08 08:43:31;;;;;;;3.93;2.40;;;16.50;99.90;;;;;;492298;241;28814;-70
2021/08/08 08:45:32;;;;;;;2.93;2.07;;;16.50;99.90;;;;;;492316;241;28805;-72
2021/08/08 08:47:34;;;;;;;1.77;1.67;;;16.80;99.90;;;;;;492318;241;28783;-72
2021/08/08 08:49:35;;;;;;;2.50;1.93;;;16.90;99.90;;;;;;492209;241;28812;-72
2021/08/08 08:51:36;;;;;;;3.53;2.23;;;17.20;99.90;;;;;;492320;241;29426;-72
2021/08/08 08:53:37;;;;;;;2.23;2.03;;;17.10;99.90;;;;;;492318;241;29286;-72
2021/08/08 08:55:38;;;;;;;2.30;2.10;;;17.00;99.90;;;;;;492314;241;30025;-72
2021/08/08 08:57:40;;;;;;;4.57;2.17;;;16.90;99.90;;;;;;492339;241;29245;-69
2021/08/08 08:59:41;;;;;;;3.37;2.37;;;16.80;99.90;;;;;;492303;241;28819;-69
2021/08/08 09:01:42;;;;;;;3.50;1.87;;;16.80;99.90;;;;;;492316;241;28778;-72
2021/08/08 09:03:43;;;;;;;1.70;1.60;;;16.90;99.90;;;;;;492321;241;28807;-72
2021/08/08 09:05:45;;;;;;;3.30;2.23;;;16.90;99.90;;;;;;492326;241;28873;-72
2021/08/08 09:07:46;;;;;;;3.03;1.93;;;17.00;99.90;;;;;;492316;241;28960;-71
2021/08/08 09:09:47;;;;;;;2.70;2.10;;;17.00;99.90;;;;;;492320;241;28910;-72
2021/08/08 09:11:48;;;;;;;2.67;2.00;;;16.80;99.90;;;;;;492292;241;28786;-71
2021/08/08 09:13:50;;;;;;;2.50;2.30;;;16.70;99.90;;;;;;492309;241;28830;-72
2021/08/08 09:15:51;;;;;;;2.30;1.90;;;16.70;99.90;;;;;;492333;241;30316;-72
2021/08/08 09:17:52;;;;;;;1.90;1.60;;;16.90;99.90;;;;;;492339;241;29129;-72
2021/08/08 09:19:53;;;;;;;3.30;1.90;;;17.00;99.90;;;;;;492258;241;29281;-72
2021/08/08 09:21:55;;;;;;;2.93;1.60;;;17.20;99.90;;;;;;492309;241;29394;-69
2021/08/08 09:23:56;;;;;;;3.27;1.93;;;17.20;99.90;;;;;;492301;241;28911;-72
2021/08/08 09:25:57;;;;;;;2.83;2.00;;;17.20;99.90;;;;;;492307;241;28881;-71
2021/08/08 09:27:58;;;;;;;2.10;1.90;;;17.40;99.90;;;;;;492322;241;28879;-71
2021/08/08 09:30:00;;;;;;;1.93;1.83;;;17.50;99.90;;;;;;492324;241;28807;-71
2021/08/08 09:32:01;;;;;;;1.97;1.77;;;17.60;99.90;;;;;;492313;241;28859;-71
2021/08/08 09:34:02;;;;;;;3.27;2.03;;;17.60;99.90;;;;;;492313;241;28912;-72
2021/08/08 09:36:03;;;;;;;3.13;2.00;;;17.60;99.90;;;;;;492304;241;28902;-71
2021/08/08 09:38:07;;;;;;;3.10;2.20;;;17.60;99.90;;;;;;492324;241;28799;-71
2021/08/08 09:40:06;;;;;;;1.97;1.80;;;17.70;99.90;;;;;;492196;241;29230;-71
2021/08/08 09:42:07;;;;;;;3.87;1.67;;;17.90;99.90;;;;;;492313;241;29301;-71
2021/08/08 09:44:09;;;;;;;3.67;2.20;;;18.00;99.90;;;;;;492334;241;29383;-72
2021/08/08 09:46:10;;;;;;;2.63;1.97;;;18.10;99.90;;;;;;492341;241;30014;-72
2021/08/08 09:48:11;;;;;;;4.07;2.27;;;18.20;99.90;;;;;;492345;241;28775;-72
2021/08/08 09:50:12;;;;;;;2.63;2.10;;;18.20;99.90;;;;;;492351;241;28807;-71
2021/08/08 09:52:13;;;;;;;3.00;1.70;;;18.30;99.90;;;;;;492352;241;28761;-71
2021/08/08 09:54:15;;;;;;;3.73;2.07;;;18.10;99.90;;;;;;492347;241;28892;-71
2021/08/08 09:56:16;;;;;;;2.63;2.10;;;18.00;99.90;;;;;;492343;241;28901;-72
2021/08/08 09:58:20;;;;;;;2.33;2.10;;;18.10;99.90;;;;;;492335;241;28785;-71
2021/08/08 10:00:18;;;;;;;3.33;2.27;;;18.30;99.90;;;;;;492144;241;28724;-70
2021/08/08 10:02:20;;;;;;;4.03;2.13;;;18.10;99.90;;;;;;492309;241;28778;-69
2021/08/08 10:04:21;;;;;;;2.60;2.10;;;18.10;99.90;;;;;;492246;241;28896;-69
2021/08/08 10:06:22;;;;;;;2.07;1.80;;;18.40;99.90;;;;;;492308;241;29365;-72
2021/08/08 10:08:23;;;;;;;3.13;2.30;;;18.70;99.90;;;;;;492316;241;29326;-72
2021/08/08 10:10:25;;;;;;;4.83;2.30;;;18.70;99.90;;;;;;492320;241;29282;-69
2021/08/08 10:12:26;;;;;;;3.87;2.53;;;18.60;99.90;;;;;;492307;241;28925;-72
2021/08/08 10:14:27;;;;;;;3.00;2.20;;;18.70;99.90;;;;;;492318;241;28921;-72
2021/08/08 10:16:31;;;;;;;3.43;2.30;;;18.60;99.90;;;;;;492287;241;28713;-71
2021/08/08 10:18:30;;;;;;;2.33;2.13;;;18.50;99.90;;;;;;492171;241;28851;-73
2021/08/08 10:20:31;;;;;;;2.30;2.10;;;18.70;99.90;;;;;;492294;241;28817;-70
2021/08/08 10:22:32;;;;;;;2.33;2.00;;;18.80;99.90;;;;;;492343;241;28775;-69
2021/08/08 10:24:34;;;;;;;3.10;2.10;;;18.90;99.90;;;;;;492296;241;28801;-70
2021/08/08 10:26:35;;;;;;;6.40;2.30;;;18.90;99.90;;;;;;492305;241;28885;-72
2021/08/08 10:28:36;;;;;;;3.57;2.53;;;18.60;99.90;;;;;;492311;241;29376;-72
2021/08/08 10:30:37;;;;;;;3.20;1.93;;;18.50;99.90;;;;;;492313;241;29287;-72
2021/08/08 10:32:39;;;;;;;2.10;1.90;;;18.50;99.90;;;;;;492315;241;29330;-72